createdAt,value
2022-07-26T00:00:43.343Z,71.50
2022-07-26T00:01:43.224Z,71.60
2022-07-26T00:02:48.305Z,71.90
2022-07-26T00:03:44.145Z,72.00
2022-07-26T00:04:43.122Z,71.70
2022-07-26T00:05:43.131Z,71.60
2022-07-26T00:06:43.094Z,71.83
2022-07-26T00:07:43.149Z,71.83
2022-07-26T00:08:43.126Z,71.94
2022-07-26T00:09:48.002Z,71.94
2022-07-26T00:10:44.082Z,71.94
2022-07-26T00:11:43.072Z,71.94
2022-07-26T00:12:43.061Z,72.03
2022-07-26T00:13:43.022Z,72.13
2022-07-26T00:14:43.019Z,72.13
2022-07-26T00:15:43.036Z,72.13
2022-07-26T00:16:43.218Z,72.13
2022-07-26T00:17:42.981Z,72.24
2022-07-26T00:18:42.970Z,72.13
2022-07-26T00:19:42.954Z,72.37
2022-07-26T00:20:43.010Z,72.47
2022-07-26T00:21:42.947Z,72.57
2022-07-26T00:22:42.932Z,72.67
2022-07-26T00:23:43.093Z,72.77
2022-07-26T00:24:42.921Z,72.87
2022-07-26T00:25:42.933Z,72.97
2022-07-26T00:26:42.890Z,73.07
2022-07-26T00:27:42.864Z,73.11
2022-07-26T00:28:42.861Z,73.21
2022-07-26T00:29:42.844Z,73.31
2022-07-26T00:30:43.825Z,73.31
2022-07-26T00:31:42.897Z,73.41
2022-07-26T00:32:42.815Z,73.51
2022-07-26T00:33:42.817Z,73.61
2022-07-26T00:34:42.796Z,73.71
2022-07-26T00:35:42.804Z,74.01
2022-07-26T00:36:42.835Z,74.15
2022-07-26T00:37:42.761Z,74.45
2022-07-26T00:38:42.782Z,74.55
2022-07-26T00:39:42.739Z,74.55
2022-07-26T00:40:42.748Z,74.55
2022-07-26T00:41:42.708Z,74.55
2022-07-26T00:42:42.739Z,74.75
2022-07-26T00:43:42.678Z,75.05
2022-07-26T00:44:42.687Z,74.85
2022-07-26T00:45:42.708Z,74.85
2022-07-26T00:46:42.712Z,74.85
2022-07-26T00:47:42.709Z,74.95
2022-07-26T00:48:42.736Z,75.29
2022-07-26T00:49:42.645Z,75.39
2022-07-26T00:50:42.612Z,75.19
2022-07-26T00:51:42.650Z,75.29
2022-07-26T00:52:42.606Z,75.29
2022-07-26T00:53:42.613Z,75.70
2022-07-26T00:54:42.592Z,75.49
2022-07-26T00:55:42.559Z,75.49
2022-07-26T00:56:42.540Z,75.79
2022-07-26T00:57:42.637Z,75.79
2022-07-26T00:58:42.538Z,75.70
2022-07-26T00:59:42.533Z,75.70
2022-07-26T01:00:42.508Z,75.79
2022-07-26T01:01:42.637Z,75.99
2022-07-26T01:02:42.537Z,75.99
2022-07-26T01:03:42.560Z,76.30
2022-07-26T01:04:42.447Z,76.30
2022-07-26T01:05:42.456Z,76.40
2022-07-26T01:06:42.456Z,76.50
2022-07-26T01:07:42.420Z,76.50
2022-07-26T01:08:42.474Z,76.50
2022-07-26T01:09:42.415Z,76.50
2022-07-26T01:10:42.395Z,76.84
2022-07-26T01:11:42.377Z,76.70
2022-07-26T01:12:42.380Z,76.60
2022-07-26T01:13:42.365Z,76.60
2022-07-26T01:14:42.370Z,76.70
2022-07-26T01:15:42.363Z,76.60
2022-07-26T01:16:42.322Z,76.40
2022-07-26T01:17:42.338Z,76.70
2022-07-26T01:18:42.299Z,76.70
2022-07-26T01:19:42.311Z,76.60
2022-07-26T01:20:42.333Z,76.40
2022-07-26T01:21:42.268Z,76.40
2022-07-26T01:22:42.276Z,76.60
2022-07-26T01:23:42.275Z,76.40
2022-07-26T01:24:42.270Z,76.30
2022-07-26T01:25:43.288Z,76.40
2022-07-26T01:26:42.219Z,76.30
2022-07-26T01:27:42.197Z,76.40
2022-07-26T01:28:42.218Z,76.40
2022-07-26T01:29:42.190Z,76.40
2022-07-26T01:30:42.250Z,76.50
2022-07-26T01:31:42.194Z,76.40
2022-07-26T01:32:42.150Z,76.40
2022-07-26T01:33:42.191Z,76.70
2022-07-26T01:34:42.126Z,76.50
2022-07-26T01:35:42.125Z,76.60
2022-07-26T01:36:42.132Z,76.56
2022-07-26T01:37:42.089Z,76.46
2022-07-26T01:38:42.089Z,76.26
2022-07-26T01:39:42.091Z,76.16
2022-07-26T01:40:42.097Z,76.26
2022-07-26T01:41:42.052Z,76.16
2022-07-26T01:42:42.054Z,76.26
2022-07-26T01:43:42.033Z,76.06
2022-07-26T01:44:42.068Z,76.06
2022-07-26T01:45:42.074Z,76.26
2022-07-26T01:46:42.062Z,76.16
2022-07-26T01:47:41.968Z,76.12
2022-07-26T01:48:42.107Z,75.92
2022-07-26T01:49:42.108Z,75.82
2022-07-26T01:50:41.951Z,75.92
2022-07-26T01:51:41.953Z,75.92
2022-07-26T01:52:41.938Z,75.92
2022-07-26T01:53:42.014Z,76.12
2022-07-26T01:54:41.892Z,75.96
2022-07-26T01:55:41.891Z,76.06
2022-07-26T01:56:41.976Z,76.12
2022-07-26T01:57:41.961Z,76.03
2022-07-26T01:58:41.873Z,76.12
2022-07-26T01:59:41.843Z,75.82
2022-07-26T02:00:41.847Z,75.96
2022-07-26T02:01:41.943Z,76.06
2022-07-26T02:02:41.894Z,76.06
2022-07-26T02:03:41.807Z,76.06
2022-07-26T02:04:41.785Z,76.06
2022-07-26T02:05:41.774Z,76.26
2022-07-26T02:06:41.767Z,76.26
2022-07-26T02:07:43.880Z,75.96
2022-07-26T02:08:41.747Z,76.06
2022-07-26T02:09:41.730Z,76.16
2022-07-26T02:10:41.736Z,76.36
2022-07-26T02:11:41.705Z,76.16
2022-07-26T02:12:41.702Z,76.36
2022-07-26T02:13:41.738Z,76.26
2022-07-26T02:14:41.716Z,76.36
2022-07-26T02:15:41.730Z,76.67
2022-07-26T02:16:41.672Z,76.76
2022-07-26T02:17:41.639Z,76.56
2022-07-26T02:18:42.587Z,76.36
2022-07-26T02:19:41.648Z,76.16
2022-07-26T02:20:41.651Z,76.36
2022-07-26T02:21:41.612Z,76.36
2022-07-26T02:22:41.591Z,76.36
2022-07-26T02:23:42.181Z,76.46
2022-07-26T02:24:41.572Z,76.46
2022-07-26T02:25:41.583Z,76.87
2022-07-26T02:26:41.550Z,76.56
2022-07-26T02:27:41.526Z,76.67
2022-07-26T02:28:41.531Z,76.56
2022-07-26T02:29:41.506Z,76.56
2022-07-26T02:30:42.463Z,76.56
2022-07-26T02:31:41.569Z,76.67
2022-07-26T02:32:43.413Z,76.67
2022-07-26T02:33:41.462Z,76.76
2022-07-26T02:34:41.467Z,76.97
2022-07-26T02:35:41.508Z,76.97
2022-07-26T02:36:41.434Z,77.07
2022-07-26T02:37:43.734Z,77.07
2022-07-26T02:38:41.441Z,77.27
2022-07-26T02:39:41.400Z,77.17
2022-07-26T02:40:41.385Z,77.07
2022-07-26T02:41:41.399Z,77.17
2022-07-26T02:42:41.422Z,77.37
2022-07-26T02:43:41.447Z,77.47
2022-07-26T02:44:41.347Z,77.47
2022-07-26T02:45:41.326Z,77.47
2022-07-26T02:46:41.390Z,77.37
2022-07-26T02:47:41.320Z,77.37
2022-07-26T02:48:41.345Z,77.47
2022-07-26T02:49:41.319Z,77.57
2022-07-26T02:50:41.283Z,77.67
2022-07-26T02:51:41.253Z,77.67
2022-07-26T02:52:41.246Z,77.37
2022-07-26T02:53:41.310Z,77.47
2022-07-26T02:54:41.263Z,77.37
2022-07-26T02:55:41.242Z,77.37
2022-07-26T02:56:41.202Z,77.61
2022-07-26T02:57:45.296Z,77.61
2022-07-26T02:58:42.199Z,77.61
2022-07-26T02:59:41.168Z,77.61
2022-07-26T03:00:41.157Z,77.61
2022-07-26T03:01:41.217Z,77.67
2022-07-26T03:02:41.164Z,77.67
2022-07-26T03:03:41.304Z,77.57
2022-07-26T03:04:41.137Z,77.57
2022-07-26T03:05:41.106Z,77.47
2022-07-26T03:06:42.065Z,77.47
2022-07-26T03:07:41.075Z,77.47
2022-07-26T03:08:41.065Z,77.47
2022-07-26T03:09:41.060Z,77.77
2022-07-26T03:10:41.059Z,77.27
2022-07-26T03:11:41.092Z,77.17
2022-07-26T03:12:41.017Z,77.27
2022-07-26T03:13:41.020Z,77.37
2022-07-26T03:14:41.013Z,77.37
2022-07-26T03:15:41.996Z,77.50
2022-07-26T03:16:41.036Z,77.81
2022-07-26T03:17:40.994Z,77.70
2022-07-26T03:18:40.979Z,77.91
2022-07-26T03:19:40.974Z,77.70
2022-07-26T03:20:40.935Z,77.81
2022-07-26T03:21:40.942Z,78.01
2022-07-26T03:22:40.949Z,77.91
2022-07-26T03:23:40.899Z,77.81
2022-07-26T03:24:40.921Z,78.21
2022-07-26T03:25:40.878Z,78.31
2022-07-26T03:26:40.867Z,78.11
2022-07-26T03:27:40.884Z,78.21
2022-07-26T03:28:40.867Z,78.21
2022-07-26T03:29:40.824Z,78.41
2022-07-26T03:30:40.868Z,78.51
2022-07-26T03:31:40.912Z,78.41
2022-07-26T03:32:40.839Z,78.61
2022-07-26T03:33:40.806Z,78.81
2022-07-26T03:34:40.780Z,78.61
2022-07-26T03:35:40.767Z,78.51
2022-07-26T03:36:40.780Z,78.65
2022-07-26T03:37:45.369Z,78.85
2022-07-26T03:38:41.778Z,78.96
2022-07-26T03:39:40.719Z,78.96
2022-07-26T03:40:40.717Z,79.16
2022-07-26T03:41:40.699Z,79.25
2022-07-26T03:42:40.733Z,79.66
2022-07-26T03:43:40.704Z,79.56
2022-07-26T03:44:40.663Z,79.36
2022-07-26T03:45:40.644Z,79.25
2022-07-26T03:46:40.681Z,79.25
2022-07-26T03:47:40.637Z,79.36
2022-07-26T03:48:40.681Z,79.76
2022-07-26T03:49:40.651Z,79.56
2022-07-26T03:50:40.597Z,79.56
2022-07-26T03:51:41.552Z,79.66
2022-07-26T03:52:40.581Z,79.66
2022-07-26T03:53:40.585Z,79.66
2022-07-26T03:54:40.552Z,79.96
2022-07-26T03:55:40.572Z,79.76
2022-07-26T03:56:40.523Z,79.86
2022-07-26T03:57:41.503Z,79.96
2022-07-26T03:58:40.514Z,80.06
2022-07-26T03:59:40.500Z,80.10
2022-07-26T04:00:40.621Z,80.30
2022-07-26T04:01:40.513Z,80.26
2022-07-26T04:02:40.529Z,80.46
2022-07-26T04:03:43.297Z,80.57
2022-07-26T04:04:41.463Z,80.36
2022-07-26T04:05:40.428Z,80.66
2022-07-26T04:06:41.457Z,80.66
2022-07-26T04:07:40.408Z,80.57
2022-07-26T04:08:40.465Z,80.57
2022-07-26T04:09:40.383Z,80.87
2022-07-26T04:10:40.375Z,80.66
2022-07-26T04:11:40.499Z,80.46
2022-07-26T04:12:40.361Z,80.46
2022-07-26T04:13:40.356Z,80.57
2022-07-26T04:14:40.332Z,80.77
2022-07-26T04:15:40.328Z,80.97
2022-07-26T04:16:43.640Z,80.87
2022-07-26T04:17:40.368Z,80.87
2022-07-26T04:18:40.294Z,80.57
2022-07-26T04:19:40.287Z,80.66
2022-07-26T04:20:40.270Z,80.87
2022-07-26T04:21:40.256Z,80.97
2022-07-26T04:22:40.313Z,81.01
2022-07-26T04:23:40.285Z,81.21
2022-07-26T04:24:40.230Z,81.47
2022-07-26T04:25:41.439Z,81.27
2022-07-26T04:26:40.199Z,81.37
2022-07-26T04:27:40.188Z,81.67
2022-07-26T04:28:40.179Z,81.98
2022-07-26T04:29:40.162Z,81.98
2022-07-26T04:30:40.221Z,82.18
2022-07-26T04:31:40.164Z,82.48
2022-07-26T04:32:40.132Z,82.68
2022-07-26T04:33:40.145Z,82.71
2022-07-26T04:34:40.121Z,83.02
2022-07-26T04:35:40.119Z,83.02
2022-07-26T04:36:40.085Z,83.22
2022-07-26T04:37:40.164Z,83.83
2022-07-26T04:38:40.075Z,83.72
2022-07-26T04:39:40.059Z,83.83
2022-07-26T04:40:40.552Z,84.03
2022-07-26T04:41:40.043Z,84.13
2022-07-26T04:42:40.030Z,84.07
2022-07-26T04:43:40.121Z,84.37
2022-07-26T04:44:40.011Z,84.27
2022-07-26T04:45:40.076Z,84.27
2022-07-26T04:46:44.966Z,84.27
2022-07-26T04:47:41.004Z,84.57
2022-07-26T04:48:40.035Z,84.57
2022-07-26T04:49:39.968Z,84.67
2022-07-26T04:50:39.940Z,84.77
2022-07-26T04:51:39.958Z,84.63
2022-07-26T04:52:39.913Z,84.74
2022-07-26T04:53:39.918Z,84.43
2022-07-26T04:54:39.889Z,84.43
2022-07-26T04:55:40.225Z,84.23
2022-07-26T04:56:39.909Z,84.33
2022-07-26T04:57:39.855Z,84.43
2022-07-26T04:58:39.849Z,84.33
2022-07-26T04:59:39.842Z,84.03
2022-07-26T05:01:40.938Z,83.93
2022-07-26T05:02:39.857Z,83.83
2022-07-26T05:03:39.794Z,83.93
2022-07-26T05:04:39.899Z,83.97
2022-07-26T05:05:39.799Z,84.17
2022-07-26T05:06:39.774Z,84.37
2022-07-26T05:07:39.752Z,84.37
2022-07-26T05:08:39.754Z,84.47
2022-07-26T05:09:39.728Z,84.37
2022-07-26T05:10:39.755Z,84.37
2022-07-26T05:11:39.716Z,84.63
2022-07-26T05:12:39.704Z,84.53
2022-07-26T05:13:39.735Z,84.43
2022-07-26T05:14:39.696Z,84.13
2022-07-26T05:15:39.657Z,84.03
2022-07-26T05:16:43.979Z,84.13
2022-07-26T05:17:39.682Z,84.13
2022-07-26T05:18:46.100Z,84.03
2022-07-26T05:19:42.119Z,84.03
2022-07-26T05:20:39.612Z,83.83
2022-07-26T05:21:39.601Z,83.93
2022-07-26T05:22:39.648Z,83.93
2022-07-26T05:23:39.618Z,83.72
2022-07-26T05:24:39.569Z,83.52
2022-07-26T05:25:39.552Z,83.83
2022-07-26T05:26:39.540Z,83.72
2022-07-26T05:27:39.579Z,83.83
2022-07-26T05:28:39.571Z,83.83
2022-07-26T05:29:39.516Z,83.48
2022-07-26T05:30:39.603Z,83.39
2022-07-26T05:31:39.492Z,83.39
2022-07-26T05:32:39.512Z,83.48
2022-07-26T05:33:39.531Z,83.48
2022-07-26T05:34:39.467Z,83.39
2022-07-26T05:35:39.443Z,83.18
2022-07-26T05:36:39.425Z,83.18
2022-07-26T05:37:39.516Z,83.28
2022-07-26T05:38:39.403Z,83.39
2022-07-26T05:39:39.471Z,83.39
2022-07-26T05:40:39.384Z,83.39
2022-07-26T05:41:39.378Z,83.39
2022-07-26T05:42:39.482Z,83.18
2022-07-26T05:43:40.659Z,83.18
2022-07-26T05:44:42.539Z,83.18
2022-07-26T05:45:39.461Z,83.28
2022-07-26T05:46:39.386Z,83.28
2022-07-26T05:47:39.323Z,83.39
2022-07-26T05:48:39.432Z,83.48
2022-07-26T05:49:40.389Z,83.39
2022-07-26T05:50:39.287Z,83.39
2022-07-26T05:51:39.278Z,83.39
2022-07-26T05:52:39.294Z,83.48
2022-07-26T05:53:39.251Z,83.28
2022-07-26T05:54:39.260Z,83.18
2022-07-26T05:55:39.327Z,83.28
2022-07-26T05:56:39.232Z,83.28
2022-07-26T05:57:39.231Z,83.39
2022-07-26T05:58:39.219Z,83.48
2022-07-26T05:59:39.198Z,83.18
2022-07-26T06:00:39.160Z,83.18
2022-07-26T06:01:39.163Z,83.25
2022-07-26T06:02:39.290Z,83.14
2022-07-26T06:03:39.139Z,83.14
2022-07-26T06:04:39.221Z,83.28
2022-07-26T06:05:40.082Z,83.34
2022-07-26T06:06:39.098Z,83.25
2022-07-26T06:07:39.109Z,83.34
2022-07-26T06:08:39.117Z,83.45
2022-07-26T06:09:39.153Z,83.25
2022-07-26T06:10:39.088Z,83.14
2022-07-26T06:11:39.055Z,83.14
2022-07-26T06:12:39.037Z,83.25
2022-07-26T06:13:39.076Z,83.14
2022-07-26T06:14:39.046Z,83.11
2022-07-26T06:15:39.037Z,83.00
2022-07-26T06:16:39.054Z,82.70
2022-07-26T06:17:38.979Z,82.70
2022-07-26T06:18:39.021Z,82.70
2022-07-26T06:19:39.141Z,82.60
2022-07-26T06:20:38.969Z,82.70
2022-07-26T06:21:38.999Z,82.70
2022-07-26T06:22:38.920Z,82.60
2022-07-26T06:23:38.934Z,82.60
2022-07-26T06:24:38.894Z,82.40
2022-07-26T06:25:38.891Z,82.50
2022-07-26T06:26:38.885Z,82.50
2022-07-26T06:27:38.943Z,82.60
2022-07-26T06:28:38.940Z,82.60
2022-07-26T06:29:38.901Z,82.60
2022-07-26T06:30:38.900Z,82.70
2022-07-26T06:31:38.900Z,82.70
2022-07-26T06:32:38.799Z,82.46
2022-07-26T06:33:38.796Z,82.46
2022-07-26T06:34:38.806Z,82.36
2022-07-26T06:35:39.729Z,82.26
2022-07-26T06:36:38.860Z,82.26
2022-07-26T06:37:38.751Z,82.06
2022-07-26T06:38:38.744Z,82.06
2022-07-26T06:39:38.748Z,82.06
2022-07-26T06:40:38.728Z,82.06
2022-07-26T06:41:38.709Z,82.06
2022-07-26T06:42:38.718Z,81.96
2022-07-26T06:43:38.683Z,82.06
2022-07-26T06:44:38.695Z,81.96
2022-07-26T06:45:38.756Z,81.96
2022-07-26T06:46:38.663Z,81.96
2022-07-26T06:47:38.714Z,81.76
2022-07-26T06:48:39.379Z,81.76
2022-07-26T06:49:39.642Z,81.85
2022-07-26T06:50:38.606Z,81.82
2022-07-26T06:51:38.594Z,81.52
2022-07-26T06:52:38.576Z,81.52
2022-07-26T06:53:38.612Z,81.41
2022-07-26T06:54:38.564Z,81.62
2022-07-26T06:55:38.547Z,81.41
2022-07-26T06:56:38.529Z,81.32
2022-07-26T06:57:44.857Z,81.32
2022-07-26T06:58:39.551Z,81.12
2022-07-26T06:59:38.507Z,81.41
2022-07-26T07:00:38.558Z,81.32
2022-07-26T07:01:57.616Z,81.12
2022-07-26T07:02:39.463Z,81.21
2022-07-26T07:03:38.478Z,81.21
2022-07-26T07:04:38.546Z,81.21
2022-07-26T07:05:38.449Z,81.18
2022-07-26T07:06:38.437Z,80.88
2022-07-26T07:07:38.452Z,80.88
2022-07-26T07:08:38.463Z,80.68
2022-07-26T07:09:38.454Z,80.37
2022-07-26T07:10:38.392Z,80.57
2022-07-26T07:11:38.376Z,80.27
2022-07-26T07:12:38.374Z,80.17
2022-07-26T07:13:38.373Z,80.47
2022-07-26T07:14:38.358Z,80.57
2022-07-26T07:15:38.357Z,80.57
2022-07-26T07:16:38.341Z,80.57
2022-07-26T07:17:38.325Z,80.43
2022-07-26T07:18:38.345Z,80.04
2022-07-26T07:19:38.287Z,80.04
2022-07-26T07:20:38.271Z,80.13
2022-07-26T07:21:38.273Z,79.63
2022-07-26T07:22:38.268Z,79.83
2022-07-26T07:23:38.275Z,80.13
2022-07-26T07:24:38.258Z,79.93
2022-07-26T07:25:38.229Z,79.53
2022-07-26T07:26:38.212Z,79.53
2022-07-26T07:27:38.209Z,79.19
2022-07-26T07:28:38.190Z,78.89
2022-07-26T07:29:38.252Z,78.89
2022-07-26T07:30:38.183Z,78.79
2022-07-26T07:31:48.662Z,78.96
2022-07-26T07:32:39.203Z,78.85
2022-07-26T07:33:52.593Z,78.66
2022-07-26T07:34:39.169Z,78.45
2022-07-26T07:35:38.131Z,78.35
2022-07-26T07:36:38.122Z,78.15
2022-07-26T07:37:53.165Z,77.85
2022-07-26T07:38:39.100Z,77.65
2022-07-26T07:39:38.817Z,77.55
2022-07-26T07:40:38.063Z,77.85
2022-07-26T07:41:38.073Z,77.95
2022-07-26T07:42:38.044Z,78.15
2022-07-26T07:43:38.026Z,77.75
2022-07-26T07:44:38.025Z,77.85
2022-07-26T07:45:38.006Z,77.95
2022-07-26T07:46:38.040Z,77.75
2022-07-26T07:47:38.080Z,77.95
2022-07-26T07:48:41.138Z,78.15
2022-07-26T07:49:38.956Z,77.91
2022-07-26T07:50:37.947Z,77.72
2022-07-26T07:51:37.969Z,77.51
2022-07-26T07:52:38.873Z,77.41
2022-07-26T07:53:37.976Z,77.08
2022-07-26T07:54:37.898Z,76.57
2022-07-26T07:55:40.702Z,76.17
2022-07-26T07:56:37.879Z,76.17
2022-07-26T07:57:37.867Z,75.97
2022-07-26T07:58:37.859Z,76.07
2022-07-26T07:59:39.517Z,75.93
2022-07-26T08:00:37.913Z,75.63
2022-07-26T08:01:40.184Z,75.07
2022-07-26T08:02:37.814Z,75.37
2022-07-26T08:03:38.673Z,75.57
2022-07-26T08:04:37.825Z,75.57
2022-07-26T08:05:40.529Z,75.43
2022-07-26T08:06:40.893Z,75.43
2022-07-26T08:07:37.783Z,74.84
2022-07-26T08:08:37.764Z,74.63
2022-07-26T08:09:37.766Z,74.33
2022-07-26T08:10:43.621Z,74.63
2022-07-26T08:11:38.736Z,74.73
2022-07-26T08:12:37.736Z,74.73
2022-07-26T08:13:37.687Z,74.63
2022-07-26T08:14:37.737Z,74.63
2022-07-26T08:15:39.260Z,74.54
2022-07-26T08:16:37.889Z,73.93
2022-07-26T08:17:39.838Z,73.63
2022-07-26T08:18:45.183Z,73.43
2022-07-26T08:19:42.062Z,73.73
2022-07-26T08:20:37.639Z,73.93
2022-07-26T08:21:37.651Z,74.23
2022-07-26T08:22:37.687Z,74.54
2022-07-26T08:23:37.623Z,74.13
2022-07-26T08:24:37.598Z,73.13
2022-07-26T08:25:42.658Z,73.43
2022-07-26T08:26:38.611Z,73.83
2022-07-26T08:27:40.988Z,73.03
2022-07-26T08:28:47.396Z,72.69
2022-07-26T08:29:38.551Z,71.30
2022-07-26T08:30:37.511Z,70.50
2022-07-26T08:31:37.575Z,70.09
2022-07-26T08:32:37.527Z,69.73
2022-07-26T08:33:37.502Z,69.99
2022-07-26T08:34:37.482Z,70.29
2022-07-26T08:35:37.501Z,70.59
2022-07-26T08:36:41.953Z,70.69
2022-07-26T08:37:38.433Z,70.59
2022-07-26T08:38:37.414Z,70.09
2022-07-26T08:39:37.445Z,70.19
2022-07-26T08:40:37.394Z,70.50
2022-07-26T08:41:37.412Z,70.69
2022-07-26T08:42:37.410Z,70.50
2022-07-26T08:43:48.918Z,70.50
2022-07-26T08:44:38.423Z,70.59
2022-07-26T08:45:37.334Z,70.29
2022-07-26T08:46:37.435Z,70.29
2022-07-26T08:47:50.278Z,70.62
2022-07-26T08:48:38.746Z,70.73
2022-07-26T08:49:37.304Z,70.83
2022-07-26T08:50:37.286Z,73.53
2022-07-26T08:51:37.294Z,75.37
2022-07-26T08:52:37.279Z,78.02
2022-07-26T08:53:37.335Z,79.75
2022-07-26T08:54:37.247Z,80.40
2022-07-26T08:56:04.451Z,82.34
2022-07-26T08:56:38.267Z,83.69
2022-07-26T08:57:37.229Z,84.49
2022-07-26T08:58:37.216Z,85.10
2022-07-26T08:59:37.236Z,86.04
2022-07-26T09:00:37.275Z,85.33
2022-07-26T09:01:37.207Z,84.83
2022-07-26T09:02:37.221Z,85.03
2022-07-26T09:03:37.208Z,84.23
2022-07-26T09:04:43.395Z,85.03
2022-07-26T09:05:38.316Z,84.43
2022-07-26T09:06:37.121Z,85.53
2022-07-26T09:07:37.122Z,86.24
2022-07-26T09:08:37.115Z,86.70
2022-07-26T09:09:37.097Z,85.90
2022-07-26T09:10:39.210Z,85.70
2022-07-26T09:11:37.105Z,84.35
2022-07-26T09:12:37.056Z,85.05
2022-07-26T09:13:37.025Z,82.75
2022-07-26T09:14:37.051Z,81.60
2022-07-26T09:15:37.022Z,83.01
2022-07-26T09:16:39.786Z,83.71
2022-07-26T09:17:37.021Z,81.46
2022-07-26T09:18:37.096Z,81.87
2022-07-26T09:19:36.987Z,81.87
2022-07-26T09:20:36.990Z,81.96
2022-07-26T09:21:36.988Z,80.06
2022-07-26T09:22:37.021Z,79.55
2022-07-26T09:23:36.937Z,77.15
2022-07-26T09:24:37.024Z,77.55
2022-07-26T09:25:36.901Z,77.85
2022-07-26T09:26:36.899Z,77.35
2022-07-26T09:27:36.973Z,74.84
2022-07-26T09:28:36.883Z,75.71
2022-07-26T09:29:37.860Z,76.11
2022-07-26T09:30:36.874Z,75.31
2022-07-26T09:31:36.960Z,75.51
2022-07-26T09:32:36.849Z,75.21
2022-07-26T09:33:36.844Z,74.60
2022-07-26T09:34:36.817Z,74.60
2022-07-26T09:35:52.533Z,74.90
2022-07-26T09:36:37.812Z,74.24
2022-07-26T09:37:36.785Z,75.14
2022-07-26T09:38:36.845Z,75.54
2022-07-26T09:39:36.785Z,75.74
2022-07-26T09:40:36.750Z,75.24
2022-07-26T09:41:36.877Z,74.30
2022-07-26T09:42:36.722Z,74.30
2022-07-26T09:43:36.714Z,72.36
2022-07-26T09:44:37.479Z,71.77
2022-07-26T09:45:37.706Z,70.76
2022-07-26T09:46:36.698Z,71.03
2022-07-26T09:47:36.669Z,70.73
2022-07-26T09:49:40.862Z,70.19
2022-07-26T09:50:36.630Z,69.46
2022-07-26T09:51:36.606Z,69.06
2022-07-26T09:52:36.627Z,68.73
2022-07-26T09:53:37.586Z,68.13
2022-07-26T09:54:36.596Z,68.89
2022-07-26T09:55:44.143Z,67.69
2022-07-26T09:56:37.580Z,67.76
2022-07-26T09:57:36.572Z,66.46
2022-07-26T09:58:37.488Z,67.03
2022-07-26T09:59:36.544Z,67.13
2022-07-26T10:00:36.563Z,67.10
2022-07-26T10:01:36.587Z,67.07
2022-07-26T10:02:36.573Z,66.96
2022-07-26T10:03:36.506Z,66.24
2022-07-26T10:04:36.477Z,66.33
2022-07-26T10:05:36.454Z,65.83
2022-07-26T10:06:36.507Z,65.94
2022-07-26T10:07:36.446Z,66.24
2022-07-26T10:08:36.420Z,66.24
2022-07-26T10:09:36.414Z,65.67
2022-07-26T10:10:36.407Z,64.87
2022-07-26T10:11:36.383Z,64.87
2022-07-26T10:12:36.420Z,64.10
2022-07-26T10:13:36.388Z,64.40
2022-07-26T10:14:36.374Z,64.70
2022-07-26T10:15:36.471Z,64.70
2022-07-26T10:16:36.357Z,64.40
2022-07-26T10:17:36.371Z,64.43
2022-07-26T10:18:36.341Z,64.93
2022-07-26T10:19:41.134Z,64.53
2022-07-26T10:20:37.414Z,63.83
2022-07-26T10:21:36.297Z,64.43
2022-07-26T10:22:36.295Z,64.86
2022-07-26T10:23:36.270Z,65.16
2022-07-26T10:24:36.260Z,65.06
2022-07-26T10:25:36.271Z,66.06
2022-07-26T10:26:36.250Z,67.09
2022-07-26T10:27:36.281Z,68.23
2022-07-26T10:28:36.210Z,69.02
2022-07-26T10:29:36.862Z,69.86
2022-07-26T10:30:36.221Z,70.56
2022-07-26T10:31:36.215Z,71.30
2022-07-26T10:32:36.193Z,71.89
2022-07-26T10:33:36.169Z,72.13
2022-07-26T10:34:36.186Z,72.93
2022-07-26T10:35:36.140Z,73.43
2022-07-26T10:36:36.123Z,73.33
2022-07-26T10:37:36.147Z,73.13
2022-07-26T10:38:36.132Z,73.27
2022-07-26T10:39:36.077Z,73.47
2022-07-26T10:40:36.082Z,73.97
2022-07-26T10:41:36.064Z,74.47
2022-07-26T10:42:36.075Z,74.47
2022-07-26T10:43:41.206Z,74.37
2022-07-26T10:44:37.051Z,74.77
2022-07-26T10:45:36.016Z,75.27
2022-07-26T10:46:36.156Z,74.97
2022-07-26T10:47:36.025Z,75.37
2022-07-26T10:48:36.060Z,75.57
2022-07-26T10:49:36.002Z,75.71
2022-07-26T10:50:35.967Z,76.41
2022-07-26T10:51:35.977Z,77.15
2022-07-26T10:52:35.960Z,77.55
2022-07-26T10:53:36.011Z,77.55
2022-07-26T10:54:35.917Z,77.75
2022-07-26T10:55:35.944Z,77.95
2022-07-26T10:56:35.949Z,77.45
2022-07-26T10:57:35.908Z,77.75
2022-07-26T10:58:35.911Z,77.75
2022-07-26T11:00:00.801Z,77.75
2022-07-26T11:00:36.880Z,77.55
2022-07-26T11:01:35.932Z,77.61
2022-07-26T11:02:36.020Z,77.41
2022-07-26T11:03:38.707Z,77.41
2022-07-26T11:04:35.811Z,77.31
2022-07-26T11:05:35.839Z,76.31
2022-07-26T11:06:35.801Z,76.57
2022-07-26T11:07:35.772Z,76.67
2022-07-26T11:08:35.848Z,76.28
2022-07-26T11:09:35.792Z,75.74
2022-07-26T11:10:35.756Z,75.34
2022-07-26T11:11:35.748Z,74.43
2022-07-26T11:12:35.734Z,74.93
2022-07-26T11:13:35.763Z,75.00
2022-07-26T11:14:35.704Z,74.90
2022-07-26T11:15:35.785Z,74.30
2022-07-26T11:16:35.691Z,74.10
2022-07-26T11:17:35.673Z,74.00
2022-07-26T11:18:35.667Z,73.86
2022-07-26T11:19:35.656Z,73.86
2022-07-26T11:20:35.648Z,73.13
2022-07-26T11:21:35.868Z,72.33
2022-07-26T11:22:35.620Z,71.92
2022-07-26T11:23:35.621Z,71.89
2022-07-26T11:24:35.629Z,72.09
2022-07-26T11:25:35.609Z,71.19
2022-07-26T11:26:35.576Z,70.96
2022-07-26T11:27:35.577Z,70.46
2022-07-26T11:28:35.551Z,70.23
2022-07-26T11:29:39.150Z,70.03
2022-07-26T11:30:36.686Z,69.62
2022-07-26T11:31:51.390Z,67.80
2022-07-26T11:32:36.554Z,68.52
2022-07-26T11:33:35.491Z,69.23
2022-07-26T11:34:35.506Z,69.89
2022-07-26T11:35:35.475Z,69.49
2022-07-26T11:36:35.506Z,68.79
2022-07-26T11:37:35.465Z,68.79
2022-07-26T11:38:35.435Z,68.96
2022-07-26T11:39:35.444Z,68.06
2022-07-26T11:40:35.416Z,67.96
2022-07-26T11:41:35.401Z,67.26
2022-07-26T11:42:35.467Z,66.63
2022-07-26T11:43:35.397Z,66.13
2022-07-26T11:44:35.383Z,66.00
2022-07-26T11:45:35.368Z,65.80
2022-07-26T11:46:35.463Z,65.01
2022-07-26T11:47:35.352Z,65.50
2022-07-26T11:48:35.407Z,64.61
2022-07-26T11:50:00.593Z,65.31
2022-07-26T11:50:36.341Z,65.27
2022-07-26T11:51:35.351Z,65.37
2022-07-26T11:52:35.312Z,65.77
2022-07-26T11:53:35.361Z,64.07
2022-07-26T11:54:35.264Z,63.68
2022-07-26T11:55:35.266Z,63.91
2022-07-26T11:56:35.259Z,64.61
2022-07-26T11:57:35.256Z,65.41
2022-07-26T11:58:35.223Z,65.70
2022-07-26T11:59:35.206Z,65.80
2022-07-26T12:00:35.220Z,64.90
2022-07-26T12:01:35.188Z,65.01
2022-07-26T12:02:35.227Z,64.87
2022-07-26T12:03:35.278Z,64.37
2022-07-26T12:04:35.298Z,63.95
2022-07-26T12:05:35.181Z,64.25
2022-07-26T12:06:35.174Z,64.04
2022-07-26T12:07:35.135Z,63.25
2022-07-26T12:08:35.209Z,63.42
2022-07-26T12:09:35.141Z,63.52
2022-07-26T12:10:35.109Z,63.72
2022-07-26T12:11:35.083Z,62.62
2022-07-26T12:12:35.066Z,62.72
2022-07-26T12:13:39.821Z,62.52
2022-07-26T12:14:36.067Z,62.13
2022-07-26T12:15:35.081Z,62.26
2022-07-26T12:16:35.067Z,62.35
2022-07-26T12:17:35.788Z,62.45
2022-07-26T12:18:35.070Z,62.38
2022-07-26T12:19:35.007Z,63.01
2022-07-26T12:20:34.979Z,63.24
2022-07-26T12:21:34.999Z,63.27
2022-07-26T12:22:34.981Z,64.17
2022-07-26T12:23:34.936Z,64.34
2022-07-26T12:24:34.987Z,64.41
2022-07-26T12:25:34.923Z,64.31
2022-07-26T12:26:34.982Z,64.67
2022-07-26T12:27:34.915Z,63.25
2022-07-26T12:28:34.891Z,62.95
2022-07-26T12:29:34.923Z,62.13
2022-07-26T12:30:35.902Z,61.13
2022-07-26T12:31:34.971Z,61.72
2022-07-26T12:32:34.863Z,61.16
2022-07-26T12:33:34.909Z,61.85
2022-07-26T12:34:34.874Z,62.26
2022-07-26T12:35:34.817Z,62.72
2022-07-26T12:36:34.819Z,62.72
2022-07-26T12:37:40.366Z,62.29
2022-07-26T12:38:35.814Z,61.83
2022-07-26T12:39:34.850Z,60.31
2022-07-26T12:40:35.612Z,59.99
2022-07-26T12:41:34.764Z,59.39
2022-07-26T12:42:34.823Z,59.62
2022-07-26T12:43:34.765Z,59.42
2022-07-26T12:44:34.753Z,59.95
2022-07-26T12:45:34.717Z,60.57
2022-07-26T12:46:34.921Z,61.27
2022-07-26T12:47:34.693Z,61.47
2022-07-26T12:48:34.722Z,61.34
2022-07-26T12:49:34.740Z,60.09
2022-07-26T12:50:34.641Z,58.32
2022-07-26T12:51:34.646Z,57.17
2022-07-26T12:52:34.674Z,55.43
2022-07-26T12:53:34.615Z,54.10
2022-07-26T12:54:34.631Z,53.89